createdAt,value
2017-11-08T00:00:58.437Z,93.80
2017-11-08T00:03:26.670Z,93.90
2017-11-08T00:05:54.949Z,93.90
2017-11-08T00:08:23.187Z,94.10
2017-11-08T00:10:51.447Z,94.00
2017-11-08T00:13:20.797Z,93.90
2017-11-08T00:15:51.824Z,93.90
2017-11-08T00:18:20.875Z,94.00
2017-11-08T00:20:49.878Z,94.00
2017-11-08T00:23:19.814Z,94.10
2017-11-08T00:25:48.086Z,94.10
2017-11-08T00:28:16.352Z,93.80
2017-11-08T00:30:44.591Z,94.20
2017-11-08T00:33:12.971Z,93.30
2017-11-08T00:35:41.231Z,93.60
2017-11-08T00:38:09.475Z,93.90
2017-11-08T00:40:39.076Z,93.40
2017-11-08T00:43:07.334Z,92.40
2017-11-08T00:45:35.574Z,92.90
2017-11-08T00:48:03.850Z,92.50
2017-11-08T00:50:32.098Z,92.80
2017-11-08T00:53:03.260Z,92.60
2017-11-08T00:55:31.954Z,93.30
2017-11-08T00:58:00.989Z,91.90
2017-11-08T01:00:29.269Z,91.50
2017-11-08T01:02:58.299Z,92.70
2017-11-08T01:05:26.539Z,92.70
2017-11-08T01:07:55.554Z,93.00
2017-11-08T01:10:23.831Z,93.00
2017-11-08T01:12:52.083Z,92.10
2017-11-08T01:15:20.330Z,93.30
2017-11-08T01:17:49.106Z,93.50
2017-11-08T01:20:17.730Z,93.30
2017-11-08T01:22:46.758Z,93.90
2017-11-08T01:25:15.019Z,93.90
2017-11-08T01:27:43.265Z,93.90
2017-11-08T01:30:11.514Z,94.10
2017-11-08T01:32:39.929Z,94.20
2017-11-08T01:35:08.948Z,94.00
2017-11-08T01:37:40.207Z,93.90
2017-11-08T01:40:09.538Z,93.60
2017-11-08T01:42:37.787Z,93.40
2017-11-08T01:45:07.953Z,93.70
2017-11-08T01:47:36.222Z,92.60
2017-11-08T01:50:04.474Z,92.10
2017-11-08T01:52:32.725Z,92.40
2017-11-08T01:55:01.014Z,91.90
2017-11-08T01:57:29.263Z,92.70
2017-11-08T01:59:58.278Z,90.60
2017-11-08T02:02:26.637Z,90.60
2017-11-08T02:04:54.904Z,90.70
2017-11-08T02:07:23.186Z,91.80
2017-11-08T02:09:51.463Z,91.90
2017-11-08T02:12:20.477Z,91.50
2017-11-08T02:14:48.727Z,91.40
2017-11-08T02:17:16.998Z,91.50
2017-11-08T02:19:46.018Z,92.30
2017-11-08T02:22:14.578Z,92.30
2017-11-08T02:24:46.798Z,93.50
2017-11-08T02:27:17.854Z,93.50
2017-11-08T02:29:46.100Z,93.70
2017-11-08T02:32:15.170Z,93.50
2017-11-08T02:34:44.186Z,94.00
2017-11-08T02:37:12.430Z,94.00
2017-11-08T02:39:40.710Z,94.10
2017-11-08T02:42:08.962Z,94.10
2017-11-08T02:44:37.210Z,93.90
2017-11-08T02:47:05.918Z,93.40
2017-11-08T02:49:34.150Z,93.70
2017-11-08T02:52:02.397Z,93.60
2017-11-08T02:54:30.678Z,93.30
2017-11-08T02:56:58.935Z,93.60
2017-11-08T02:59:27.167Z,91.70
2017-11-08T03:01:55.772Z,91.90
2017-11-08T03:04:25.846Z,92.10
2017-11-08T03:06:54.083Z,92.50
2017-11-08T03:09:22.412Z,93.10
2017-11-08T03:11:50.651Z,93.60
2017-11-08T03:14:18.898Z,93.60
2017-11-08T03:16:47.165Z,93.40
2017-11-08T03:19:15.402Z,93.60
2017-11-08T03:21:43.646Z,94.00
2017-11-08T03:24:12.179Z,94.00
2017-11-08T03:26:40.436Z,94.20
2017-11-08T03:29:09.454Z,94.40
2017-11-08T03:31:38.615Z,94.40
2017-11-08T03:34:06.858Z,94.70
2017-11-08T03:36:35.106Z,94.70
2017-11-08T03:39:03.413Z,94.80
2017-11-08T03:41:31.652Z,94.60
2017-11-08T03:43:59.893Z,94.50
2017-11-08T03:46:28.170Z,94.70
2017-11-08T03:48:56.418Z,94.90
2017-11-08T03:51:24.658Z,94.80
2017-11-08T03:53:53.118Z,95.10
2017-11-08T03:56:21.361Z,95.20
2017-11-08T03:58:49.605Z,93.70
2017-11-08T04:01:17.870Z,93.20
2017-11-08T04:03:46.118Z,93.00
2017-11-08T04:06:15.131Z,93.50
2017-11-08T04:08:43.410Z,93.50
2017-11-08T04:11:11.651Z,93.00
2017-11-08T04:13:39.897Z,92.40
2017-11-08T04:16:08.593Z,92.00
2017-11-08T04:18:36.846Z,92.60
2017-11-08T04:21:05.090Z,93.40
2017-11-08T04:23:33.358Z,93.80
2017-11-08T04:26:01.837Z,94.30
2017-11-08T04:28:30.851Z,94.70
2017-11-08T04:30:59.114Z,94.70
2017-11-08T04:33:27.355Z,94.80
2017-11-08T04:35:55.599Z,95.00
2017-11-08T04:38:23.970Z,95.10
2017-11-08T04:40:52.219Z,95.30
2017-11-08T04:43:20.462Z,95.50
2017-11-08T04:45:48.739Z,95.70
2017-11-08T04:48:16.997Z,95.80
2017-11-08T04:50:45.243Z,95.50
2017-11-08T04:53:13.737Z,95.40
2017-11-08T04:55:42.054Z,95.50
2017-11-08T04:58:10.297Z,95.50
2017-11-08T05:00:38.635Z,95.60
2017-11-08T05:03:06.882Z,95.70
2017-11-08T05:05:35.134Z,95.20
2017-11-08T05:08:03.397Z,94.70
2017-11-08T05:10:32.519Z,95.00
2017-11-08T05:13:00.749Z,95.00
2017-11-08T05:15:29.017Z,95.40
2017-11-08T05:17:57.266Z,95.50
2017-11-08T05:20:25.506Z,95.40
2017-11-08T05:22:54.294Z,95.70
2017-11-08T05:25:22.538Z,95.10
2017-11-08T05:27:51.318Z,95.00
2017-11-08T05:30:20.346Z,95.40
2017-11-08T05:32:48.596Z,95.40
2017-11-08T05:35:16.839Z,95.50
2017-11-08T05:37:45.111Z,95.50
2017-11-08T05:40:13.361Z,94.90
2017-11-08T05:42:41.609Z,94.90
2017-11-08T05:45:10.326Z,95.30
2017-11-08T05:47:38.574Z,95.20
2017-11-08T05:50:06.834Z,95.00
2017-11-08T05:52:35.893Z,94.50
2017-11-08T05:55:04.144Z,94.40
2017-11-08T05:57:32.385Z,93.20
2017-11-08T06:00:00.724Z,94.60
2017-11-08T06:02:28.961Z,93.40
2017-11-08T06:04:57.206Z,93.80
2017-11-08T06:07:26.164Z,94.00
2017-11-08T06:09:54.418Z,93.00
2017-11-08T06:12:22.683Z,93.60
2017-11-08T06:14:50.950Z,94.50
2017-11-08T06:17:19.207Z,93.50
2017-11-08T06:19:48.226Z,93.80
2017-11-08T06:22:16.506Z,93.80
2017-11-08T06:24:44.753Z,93.80
2017-11-08T06:27:13.775Z,92.80
2017-11-08T06:29:42.691Z,92.80
2017-11-08T06:32:10.941Z,93.10
2017-11-08T06:34:39.294Z,93.40
2017-11-08T06:37:07.586Z,93.40
2017-11-08T06:39:35.843Z,93.60
2017-11-08T06:42:04.919Z,93.70
2017-11-08T06:44:33.189Z,93.70
2017-11-08T06:47:01.516Z,94.00
2017-11-08T06:49:29.988Z,94.00
2017-11-08T06:51:59.944Z,94.50
2017-11-08T06:54:28.198Z,95.00
2017-11-08T06:56:56.453Z,94.70
2017-11-08T06:59:24.730Z,94.80
2017-11-08T07:01:53.752Z,95.40
2017-11-08T07:04:22.005Z,95.40
2017-11-08T07:06:50.294Z,94.50
2017-11-08T07:09:18.545Z,94.30
2017-11-08T07:11:47.566Z,94.70
2017-11-08T07:14:16.292Z,94.60
2017-11-08T07:16:44.534Z,94.30
2017-11-08T07:19:12.797Z,94.40
2017-11-08T07:21:41.854Z,94.80
2017-11-08T07:24:10.106Z,94.70
2017-11-08T07:26:38.362Z,94.20
2017-11-08T07:29:06.703Z,94.60
2017-11-08T07:31:35.199Z,94.70
2017-11-08T07:34:04.236Z,94.80
2017-11-08T07:36:32.654Z,94.70
2017-11-08T07:39:01.109Z,94.80
2017-11-08T07:41:29.355Z,94.80
2017-11-08T07:43:57.630Z,94.50
2017-11-08T07:46:25.885Z,95.00
2017-11-08T07:48:54.906Z,94.40
2017-11-08T07:51:23.180Z,94.40
2017-11-08T07:53:51.426Z,94.70
2017-11-08T07:56:20.554Z,94.70
2017-11-08T07:58:49.272Z,94.90
2017-11-08T08:01:17.518Z,95.00
2017-11-08T08:03:45.776Z,94.70
2017-11-08T08:06:14.822Z,94.80
2017-11-08T08:08:43.062Z,94.80
2017-11-08T08:11:16.894Z,94.30
2017-11-08T08:13:45.151Z,94.40
2017-11-08T08:16:13.396Z,94.70
2017-11-08T08:18:42.789Z,94.20
2017-11-08T08:21:15.997Z,94.20
2017-11-08T08:23:44.278Z,93.40
2017-11-08T08:26:12.759Z,94.10
2017-11-08T08:28:41.006Z,94.30
2017-11-08T08:31:09.536Z,94.60
2017-11-08T08:33:37.970Z,94.80
2017-11-08T08:36:06.223Z,94.80
2017-11-08T08:38:34.713Z,93.80
2017-11-08T08:41:02.967Z,94.30
2017-11-08T08:43:31.319Z,94.30
2017-11-08T08:45:59.618Z,93.60
2017-11-08T08:48:27.874Z,94.00
2017-11-08T08:50:56.126Z,93.10
2017-11-08T08:53:24.402Z,93.40
2017-11-08T08:55:52.653Z,93.20
2017-11-08T08:58:20.906Z,92.50
2017-11-08T09:00:49.399Z,92.00
2017-11-08T09:03:20.461Z,92.70
2017-11-08T09:05:48.823Z,93.30
2017-11-08T09:08:17.082Z,92.40
2017-11-08T09:10:45.335Z,92.00
2017-11-08T09:13:13.586Z,92.80
2017-11-08T09:15:41.864Z,93.20
2017-11-08T09:18:10.883Z,93.10
2017-11-08T09:20:39.130Z,93.00
2017-11-08T09:23:07.662Z,93.20
2017-11-08T09:25:35.919Z,93.50
2017-11-08T09:28:04.166Z,93.00
2017-11-08T09:30:33.354Z,92.40
2017-11-08T09:33:01.594Z,92.40
2017-11-08T09:35:30.134Z,93.00
2017-11-08T09:38:04.012Z,92.90
2017-11-08T09:40:32.277Z,92.30
2017-11-08T09:43:03.291Z,92.10
2017-11-08T09:45:31.986Z,93.00
2017-11-08T09:48:00.238Z,92.40
2017-11-08T09:50:28.486Z,91.90
2017-11-08T09:52:56.766Z,92.10
2017-11-08T09:55:26.962Z,92.30
2017-11-08T09:57:55.216Z,92.20
2017-11-08T10:00:23.495Z,92.00
2017-11-08T10:02:54.694Z,91.90
2017-11-08T10:05:23.724Z,92.40
2017-11-08T10:07:52.425Z,92.30
2017-11-08T10:10:20.649Z,91.50
2017-11-08T10:15:45.478Z,91.70
2017-11-08T10:18:13.758Z,91.20
2017-11-08T10:20:42.009Z,92.20
2017-11-08T10:23:10.268Z,92.40
2017-11-08T10:25:38.646Z,92.10
2017-11-08T10:28:06.898Z,91.50
2017-11-08T10:30:35.177Z,91.50
2017-11-08T10:33:03.430Z,90.70
2017-11-08T10:35:32.092Z,91.80
2017-11-08T10:38:01.139Z,92.80
2017-11-08T10:40:29.422Z,92.70
2017-11-08T10:42:57.639Z,92.80
2017-11-08T10:45:25.887Z,92.90
2017-11-08T10:47:55.496Z,92.20
2017-11-08T10:50:23.811Z,92.20
2017-11-08T10:53:09.899Z,91.80
2017-11-08T10:55:38.151Z,92.40
2017-11-08T10:58:06.411Z,91.80
2017-11-08T11:00:37.574Z,92.60
2017-11-08T11:03:06.749Z,92.80
2017-11-08T11:05:35.763Z,92.50
2017-11-08T11:08:04.377Z,92.50
2017-11-08T11:10:32.660Z,93.10
2017-11-08T11:13:03.684Z,92.80
2017-11-08T11:15:31.961Z,93.30
2017-11-08T11:18:00.206Z,92.80
2017-11-08T11:20:28.607Z,92.80
2017-11-08T11:22:56.865Z,93.10
2017-11-08T11:25:27.011Z,93.00
2017-11-08T11:27:55.264Z,93.10
2017-11-08T11:30:25.724Z,92.60
2017-11-08T11:32:53.979Z,92.60
2017-11-08T11:35:22.262Z,91.80
2017-11-08T11:37:51.059Z,92.00
2017-11-08T11:40:19.321Z,92.40
2017-11-08T11:42:47.596Z,93.30
2017-11-08T11:45:15.871Z,92.80
2017-11-08T11:47:44.891Z,93.10
2017-11-08T11:50:13.147Z,93.00
2017-11-08T11:52:41.563Z,93.30
2017-11-08T11:55:09.819Z,93.30
2017-11-08T11:57:38.200Z,93.30
2017-11-08T12:00:06.624Z,92.90
2017-11-08T12:02:34.878Z,93.20
2017-11-08T12:05:03.139Z,93.30
2017-11-08T12:07:33.265Z,93.00
2017-11-08T12:10:03.293Z,93.10
2017-11-08T12:12:31.526Z,93.00
2017-11-08T12:14:59.899Z,93.30
2017-11-08T12:17:31.061Z,93.20
2017-11-08T12:19:59.304Z,92.80
2017-11-08T12:22:27.716Z,93.00
2017-11-08T12:24:56.063Z,92.70
2017-11-08T12:27:29.867Z,92.70
2017-11-08T12:29:58.367Z,93.10
2017-11-08T12:32:27.537Z,93.30
2017-11-08T12:34:58.611Z,93.30
2017-11-08T12:37:27.676Z,92.80
2017-11-08T12:39:56.727Z,92.80
2017-11-08T12:42:26.619Z,93.10
2017-11-08T12:45:12.687Z,93.00
2017-11-08T12:47:40.973Z,92.50
2017-11-08T12:50:11.701Z,93.30
2017-11-08T12:52:40.230Z,93.70
2017-11-08T12:55:08.931Z,93.80
2017-11-08T12:57:37.211Z,94.00
2017-11-08T13:00:05.472Z,93.80
2017-11-08T13:02:33.755Z,92.80
2017-11-08T13:05:02.019Z,93.40
2017-11-08T13:07:30.259Z,93.50
2017-11-08T13:09:58.540Z,92.10
2017-11-08T13:12:26.799Z,92.20
2017-11-08T13:14:55.057Z,92.70
2017-11-08T13:17:23.772Z,93.40
2017-11-08T13:19:52.015Z,93.60
2017-11-08T13:22:20.276Z,93.50
2017-11-08T13:24:48.555Z,93.40
2017-11-08T13:27:16.807Z,93.80
2017-11-08T13:29:45.068Z,93.50
2017-11-08T13:32:13.724Z,92.70
2017-11-08T13:34:41.981Z,93.40
2017-11-08T13:37:10.238Z,92.90
2017-11-08T13:39:39.032Z,93.50
2017-11-08T13:42:09.172Z,93.90
2017-11-08T13:44:37.427Z,93.60
2017-11-08T13:47:05.712Z,93.60
2017-11-08T13:49:33.992Z,93.30
2017-11-08T13:52:02.259Z,93.60
2017-11-08T13:54:30.535Z,93.70
2017-11-08T13:56:58.788Z,93.00
2017-11-08T13:59:27.808Z,92.80
2017-11-08T14:01:56.163Z,92.80
2017-11-08T14:04:25.188Z,92.70
2017-11-08T14:06:53.471Z,92.70
2017-11-08T14:09:21.999Z,91.90
2017-11-08T14:11:50.368Z,92.60
2017-11-08T14:14:18.620Z,91.40
2017-11-08T14:16:46.921Z,92.40
2017-11-08T14:19:15.171Z,92.80
2017-11-08T14:21:43.414Z,91.50
2017-11-08T14:24:12.888Z,92.70
2017-11-08T14:26:41.136Z,92.70
2017-11-08T14:29:09.398Z,92.80
2017-11-08T14:31:37.671Z,92.80
2017-11-08T14:34:08.851Z,92.80
2017-11-08T14:36:37.100Z,91.30
2017-11-08T14:39:05.382Z,91.80
2017-11-08T14:41:33.828Z,91.30
2017-11-08T14:44:02.856Z,91.90
2017-11-08T14:46:31.368Z,91.90
2017-11-08T14:48:59.614Z,92.30
2017-11-08T14:51:27.855Z,92.50
2017-11-08T14:54:03.136Z,92.80
2017-11-08T14:56:31.395Z,93.20
2017-11-08T14:58:59.639Z,92.90
2017-11-08T15:01:27.923Z,92.70
2017-11-08T15:03:56.935Z,91.90
2017-11-08T15:06:25.195Z,91.90
2017-11-08T15:08:53.553Z,91.60
2017-11-08T15:11:21.795Z,92.20
2017-11-08T15:13:50.057Z,92.00
2017-11-08T15:16:18.334Z,92.50
2017-11-08T15:18:46.628Z,93.10
2017-11-08T15:21:15.001Z,93.20
2017-11-08T15:23:43.271Z,92.80
2017-11-08T15:26:11.553Z,92.10
2017-11-08T15:28:39.816Z,91.70
2017-11-08T15:31:08.525Z,91.10
2017-11-08T15:33:36.779Z,91.70
2017-11-08T15:36:05.246Z,92.60
2017-11-08T15:38:34.351Z,92.60
2017-11-08T15:41:02.615Z,92.60
2017-11-08T15:43:31.907Z,91.20
2017-11-08T15:46:00.968Z,91.10
2017-11-08T15:48:29.264Z,91.10
2017-11-08T15:50:57.502Z,90.60
2017-11-08T15:53:26.399Z,91.40
2017-11-08T15:55:57.566Z,92.00
2017-11-08T15:58:25.822Z,92.10
2017-11-08T16:00:54.095Z,91.50
2017-11-08T16:03:22.352Z,91.10
2017-11-08T16:05:50.599Z,91.00
2017-11-08T16:08:19.651Z,90.80
2017-11-08T16:10:47.930Z,90.80
2017-11-08T16:13:16.202Z,91.60
2017-11-08T16:15:45.525Z,91.50
2017-11-08T16:18:13.995Z,92.20
2017-11-08T16:20:42.244Z,92.20
2017-11-08T16:23:10.611Z,92.60
2017-11-08T16:25:38.872Z,92.40
2017-11-08T16:28:07.879Z,93.00
2017-11-08T16:30:36.155Z,93.00
2017-11-08T16:33:04.417Z,93.20
2017-11-08T16:35:34.263Z,93.60
2017-11-08T16:38:02.866Z,93.60
2017-11-08T16:40:31.108Z,93.90
2017-11-08T16:43:00.405Z,94.00
2017-11-08T16:45:28.690Z,94.40
2017-11-08T16:47:57.124Z,94.20
2017-11-08T16:50:26.287Z,94.30
2017-11-08T16:52:54.563Z,94.50
2017-11-08T16:55:22.883Z,94.50
2017-11-08T16:57:51.270Z,94.70
2017-11-08T17:00:20.419Z,94.80
2017-11-08T17:02:48.692Z,94.70
2017-11-08T17:05:16.995Z,94.80
2017-11-08T17:07:45.273Z,94.90
2017-11-08T17:10:13.523Z,94.80
2017-11-08T17:12:41.789Z,94.90
2017-11-08T17:15:10.056Z,94.80
2017-11-08T17:17:38.763Z,95.10
2017-11-08T17:20:07.037Z,95.10
2017-11-08T17:22:35.376Z,95.10
2017-11-08T17:25:04.398Z,95.10
2017-11-08T17:27:32.643Z,95.00
2017-11-08T17:30:01.001Z,95.00
2017-11-08T17:32:29.273Z,95.20
2017-11-08T17:34:57.527Z,95.30
2017-11-08T17:37:25.820Z,95.30
2017-11-08T17:39:54.405Z,95.30
2017-11-08T17:42:22.672Z,95.20
2017-11-08T17:44:51.176Z,95.30
2017-11-08T17:47:19.427Z,95.40
2017-11-08T17:49:47.679Z,95.60
2017-11-08T17:52:15.951Z,95.30
2017-11-08T17:54:44.216Z,95.20
2017-11-08T17:57:12.535Z,95.30
2017-11-08T17:59:40.799Z,95.50
2017-11-08T18:02:09.059Z,95.40
2017-11-08T18:04:37.310Z,95.40
2017-11-08T18:07:06.270Z,95.50
2017-11-08T18:09:34.522Z,95.60
2017-11-08T18:12:02.775Z,95.50
2017-11-08T18:14:31.081Z,95.70
2017-11-08T18:16:59.341Z,95.70
2017-11-08T18:19:27.595Z,95.60
2017-11-08T18:21:55.871Z,95.60
2017-11-08T18:24:24.935Z,95.70
2017-11-08T18:26:53.187Z,95.60
2017-11-08T18:29:22.263Z,95.60
2017-11-08T18:31:50.523Z,95.90
2017-11-08T18:34:18.776Z,95.80
2017-11-08T18:36:47.812Z,95.90
2017-11-08T18:39:16.080Z,95.80
2017-11-08T18:41:44.334Z,95.90
2017-11-08T18:44:12.607Z,95.80
2017-11-08T18:46:41.187Z,95.70
2017-11-08T18:49:10.207Z,95.30
2017-11-08T18:51:38.769Z,95.30
2017-11-08T18:54:07.778Z,95.20
2017-11-08T18:56:36.068Z,95.20
2017-11-08T18:59:04.334Z,95.80
2017-11-08T19:01:32.588Z,95.50
2017-11-08T19:04:00.843Z,95.20
2017-11-08T19:06:29.125Z,95.50
2017-11-08T19:08:57.383Z,95.50
2017-11-08T19:11:25.673Z,95.80
2017-11-08T19:13:54.324Z,95.90
2017-11-08T19:16:22.570Z,96.00
2017-11-08T19:18:50.824Z,95.90
2017-11-08T19:21:19.863Z,95.10
2017-11-08T19:23:48.115Z,95.10
2017-11-08T19:26:16.365Z,95.00
2017-11-08T19:28:44.647Z,94.40
2017-11-08T19:31:12.900Z,94.20
2017-11-08T19:33:41.165Z,94.20
2017-11-08T19:36:09.511Z,94.10
2017-11-08T19:38:37.848Z,94.20
2017-11-08T19:41:06.242Z,94.40
2017-11-08T19:43:34.551Z,94.50
2017-11-08T19:46:02.855Z,94.60
2017-11-08T19:48:31.401Z,94.70
2017-11-08T19:50:59.711Z,94.90
2017-11-08T19:53:28.723Z,96.10
2017-11-08T19:55:56.982Z,96.10
2017-11-08T19:58:25.511Z,96.10
2017-11-08T20:00:53.760Z,96.30
2017-11-08T20:03:22.007Z,96.80
2017-11-08T20:05:50.292Z,97.00
2017-11-08T20:08:18.548Z,96.80
2017-11-08T20:10:46.815Z,96.80
2017-11-08T20:13:15.075Z,96.90
2017-11-08T20:15:44.092Z,96.50
2017-11-08T20:18:12.339Z,96.50
2017-11-08T20:20:40.861Z,96.60
2017-11-08T20:23:09.137Z,96.40
2017-11-08T20:25:37.391Z,96.70
2017-11-08T20:28:05.678Z,97.00
2017-11-08T20:30:33.932Z,97.10
2017-11-08T20:33:02.176Z,97.20
2017-11-08T20:35:30.456Z,97.10
2017-11-08T20:37:58.709Z,97.30
2017-11-08T20:40:26.959Z,97.00
2017-11-08T20:42:55.669Z,96.80
2017-11-08T20:45:23.920Z,97.00
2017-11-08T20:47:52.163Z,97.00
2017-11-08T20:50:20.859Z,96.90
2017-11-08T20:52:49.111Z,97.10
2017-11-08T20:55:17.361Z,97.10
2017-11-08T20:57:45.635Z,97.20
2017-11-08T21:00:13.887Z,97.60
2017-11-08T21:02:42.142Z,97.60
2017-11-08T21:05:10.600Z,97.80
2017-11-08T21:07:38.852Z,98.00
2017-11-08T21:10:07.110Z,98.30
2017-11-08T21:12:36.471Z,97.90
2017-11-08T21:15:05.498Z,98.00
2017-11-08T21:17:33.757Z,98.10
2017-11-08T21:20:02.791Z,97.50
2017-11-08T21:22:31.099Z,97.50
2017-11-08T21:25:00.135Z,97.80
2017-11-08T21:27:28.826Z,97.80
2017-11-08T21:29:57.084Z,98.40
2017-11-08T21:32:25.331Z,98.00
2017-11-08T21:34:53.604Z,98.20
2017-11-08T21:37:21.968Z,98.70
2017-11-08T21:39:50.210Z,98.50
2017-11-08T21:42:18.491Z,98.70
2017-11-08T21:44:46.743Z,98.60
2017-11-08T21:47:16.126Z,98.90
2017-11-08T21:49:45.274Z,98.80
2017-11-08T21:52:13.954Z,99.00
2017-11-08T21:54:42.195Z,99.00
2017-11-08T21:57:10.808Z,99.00
2017-11-08T21:59:39.051Z,98.90
2017-11-08T22:02:07.300Z,99.00
2017-11-08T22:04:35.567Z,99.00
2017-11-08T22:07:03.849Z,99.20
2017-11-08T22:09:32.082Z,99.10
2017-11-08T22:12:00.731Z,99.10
2017-11-08T22:14:28.981Z,99.30
2017-11-08T22:16:57.226Z,99.50
2017-11-08T22:19:25.508Z,99.50
2017-11-08T22:21:53.768Z,99.30
2017-11-08T22:24:22.879Z,99.60
2017-11-08T22:26:51.159Z,99.20
2017-11-08T22:29:19.410Z,99.50
2017-11-08T22:31:48.427Z,99.40
2017-11-08T22:34:17.031Z,99.40
2017-11-08T22:36:45.291Z,99.40
2017-11-08T22:39:13.544Z,99.50
2017-11-08T22:41:41.820Z,99.70
2017-11-08T22:44:10.834Z,99.30
2017-11-08T22:46:39.087Z,99.30
2017-11-08T22:49:07.364Z,99.20
2017-11-08T22:51:35.620Z,99.30
2017-11-08T22:54:04.328Z,99.10
2017-11-08T22:56:33.682Z,99.40
2017-11-08T22:59:01.931Z,99.30
2017-11-08T23:01:30.185Z,99.60
2017-11-08T23:03:58.463Z,99.60
2017-11-08T23:06:27.481Z,99.70
2017-11-08T23:08:55.734Z,99.70
2017-11-08T23:11:24.009Z,99.80
2017-11-08T23:13:52.257Z,99.90
2017-11-08T23:16:22.353Z,99.90
2017-11-08T23:18:50.924Z,99.70
2017-11-08T23:21:19.184Z,99.50
2017-11-08T23:23:47.436Z,99.70
2017-11-08T23:26:15.726Z,99.90
2017-11-08T23:28:44.874Z,99.10
2017-11-08T23:31:13.115Z,99.10
2017-11-08T23:33:41.391Z,99.50
2017-11-08T23:36:09.648Z,99.70
2017-11-08T23:38:37.892Z,99.30
2017-11-08T23:41:06.648Z,99.40
2017-11-08T23:43:34.898Z,99.90
2017-11-08T23:46:03.271Z,99.80
2017-11-08T23:48:31.537Z,99.80
2017-11-08T23:50:59.789Z,99.70
2017-11-08T23:53:28.054Z,99.70
2017-11-08T23:55:57.515Z,99.20
2017-11-08T23:58:25.772Z,99.20
